Maumee, Indiana
Current Conditions -  °F | °C
As of 7:55 AM on Friday 31 Oct 2014 (Local Time) from KGWB Reporting Station
Moderate Rain Moderate Rain  
Wind Chill: 39°   Ceiling: 3300
Heat Index: 43°   Visibility: 7mi
Dew Point: 37°   Wind: 6mph
Humidity: 81%   Direction: 270°W
Pressure: 29.93"   Gusts: NA
Location:  41.1055°N, 84.8542°W
Report Text: KGWB 311155Z AUTO 27005KT 7SM RA SCT028 BKN033 OVC047 06/03 A2993 RMK AO2
Loading
Personal Weather Stations






























Interactive Weather Map
Tropical Storm Tracking
New forecast layout! Learn more

10-Day Weather Forecast

Advertisements
Track Severe Weather on mobile